Time;durP1;ratioP1;P1;durP2;ratioP2;P2;SDS_P1;SDS_P2;PMS_P1;PMS_P2;Temp;Humidity;BMP_temperature;BMP_pressure;BME280_temperature;BME280_humidity;BME280_pressure;Samples;Min_cycle;Max_cycle;Signal;HPM_P1;HPM_P2
2023/07/13 00:01:58;;;;;;;4.10;2.00;;;21.70;75.30;;;;;;4996240;28;20077;-69
2023/07/13 00:04:25;;;;;;;5.53;2.67;;;21.70;75.70;;;;;;4996550;28;20014;-71
2023/07/13 00:06:52;;;;;;;5.07;1.92;;;21.60;75.30;;;;;;4995893;28;20038;-68
2023/07/13 00:09:19;;;;;;;3.58;1.90;;;21.60;75.10;;;;;;4996020;28;20101;-67
2023/07/13 00:11:51;;;;;;;5.20;2.10;;;21.60;74.90;;;;;;4995968;28;20466;-67
2023/07/13 00:14:17;;;;;;;3.70;1.88;;;21.60;75.40;;;;;;4996084;28;20319;-68
2023/07/13 00:16:43;;;;;;;2.78;1.63;;;21.60;75.20;;;;;;4996131;28;20109;-68
2023/07/13 00:19:11;;;;;;;2.50;1.50;;;21.60;74.90;;;;;;4995852;28;20126;-68
2023/07/13 00:21:40;;;;;;;2.08;1.60;;;21.70;74.90;;;;;;4996541;28;20027;-69
2023/07/13 00:24:12;;;;;;;4.78;1.90;;;21.70;75.00;;;;;;4995840;28;20015;-68
2023/07/13 00:26:39;;;;;;;3.70;2.05;;;21.80;74.80;;;;;;4996045;28;20022;-69
2023/07/13 00:29:09;;;;;;;5.43;2.25;;;21.80;75.10;;;;;;4995775;28;20460;-68
2023/07/13 00:31:35;;;;;;;4.82;2.30;;;21.80;75.20;;;;;;4995757;28;20030;-69
2023/07/13 00:34:02;;;;;;;7.25;2.40;;;21.80;75.30;;;;;;4995700;28;20041;-69
2023/07/13 00:36:30;;;;;;;8.32;3.25;;;21.80;75.60;;;;;;4995455;28;20376;-69
2023/07/13 00:38:56;;;;;;;7.88;2.80;;;21.90;76.00;;;;;;4995640;28;20084;-69
2023/07/13 00:41:22;;;;;;;5.63;2.60;;;21.90;75.60;;;;;;4995819;28;20470;-69
2023/07/13 00:43:48;;;;;;;8.48;3.22;;;21.80;75.30;;;;;;4996129;28;20022;-69
2023/07/13 00:46:25;;;;;;;9.50;2.78;;;21.70;75.90;;;;;;4995557;28;20026;-69
2023/07/13 00:48:53;;;;;;;5.22;2.78;;;21.50;75.90;;;;;;4995008;28;20050;-69
2023/07/13 00:51:25;;;;;;;8.10;2.67;;;21.40;76.00;;;;;;4995538;28;20096;-69
2023/07/13 00:53:54;;;;;;;3.63;2.65;;;21.40;76.10;;;;;;4996074;28;20027;-69
2023/07/13 00:56:20;;;;;;;4.82;2.60;;;21.30;76.40;;;;;;4995397;28;20117;-70
2023/07/13 00:58:46;;;;;;;5.43;2.65;;;21.40;76.60;;;;;;4995141;28;20026;-69
2023/07/13 01:01:12;;;;;;;5.35;2.80;;;21.50;76.60;;;;;;4995430;28;20053;-70
2023/07/13 01:03:40;;;;;;;7.82;2.90;;;21.50;76.80;;;;;;4995391;28;20023;-69
2023/07/13 01:06:06;;;;;;;4.85;2.55;;;21.40;76.80;;;;;;4995380;28;20518;-68
2023/07/13 01:08:33;;;;;;;5.13;2.70;;;21.20;76.80;;;;;;4994538;28;20420;-68
2023/07/13 01:10:59;;;;;;;5.18;2.30;;;21.00;76.90;;;;;;4995351;28;20034;-70
2023/07/13 01:13:25;;;;;;;6.30;2.85;;;21.00;77.00;;;;;;4995038;28;20026;-69
2023/07/13 01:15:53;;;;;;;6.75;2.67;;;21.00;78.10;;;;;;4995237;28;20054;-68
2023/07/13 01:18:22;;;;;;;4.15;2.63;;;20.90;78.70;;;;;;4995319;28;20105;-70
2023/07/13 01:20:54;;;;;;;12.18;2.90;;;20.90;78.20;;;;;;4995199;28;20447;-68
2023/07/13 01:23:21;;;;;;;8.57;3.00;;;20.80;78.40;;;;;;4995275;28;20030;-70
2023/07/13 01:25:47;;;;;;;6.93;3.25;;;20.70;78.80;;;;;;4995258;28;20065;-68
2023/07/13 01:28:14;;;;;;;8.55;3.35;;;20.70;78.60;;;;;;4999152;28;20097;-68
2023/07/13 01:30:40;;;;;;;8.40;3.55;;;20.60;80.20;;;;;;4999133;28;20041;-69
2023/07/13 01:33:07;;;;;;;7.20;3.50;;;20.60;79.90;;;;;;4998835;28;20026;-69
2023/07/13 01:35:34;;;;;;;8.73;3.80;;;20.60;80.20;;;;;;4999249;28;20034;-69
2023/07/13 01:38:01;;;;;;;8.05;3.47;;;20.50;80.80;;;;;;4998543;28;20380;-69
2023/07/13 01:40:28;;;;;;;7.25;3.05;;;20.50;80.70;;;;;;4999357;28;20036;-70
2023/07/13 01:42:53;;;;;;;7.75;3.22;;;20.50;80.50;;;;;;4999115;28;20026;-69
2023/07/13 01:45:19;;;;;;;7.45;3.38;;;20.50;80.40;;;;;;4999058;28;20432;-70
2023/07/13 01:47:45;;;;;;;10.48;3.67;;;20.50;80.70;;;;;;4999106;28;20023;-70
2023/07/13 01:50:11;;;;;;;6.85;2.92;;;20.50;80.20;;;;;;4998511;28;20107;-70
2023/07/13 01:52:37;;;;;;;5.95;3.28;;;20.60;80.30;;;;;;4998957;28;20509;-69
2023/07/13 01:55:04;;;;;;;9.15;3.40;;;20.50;80.10;;;;;;4998567;28;20125;-70
2023/07/13 01:57:30;;;;;;;4.90;2.85;;;20.50;80.30;;;;;;4998883;28;20028;-70
2023/07/13 01:59:55;;;;;;;5.82;2.90;;;20.50;79.60;;;;;;4998365;28;20383;-69
2023/07/13 02:02:21;;;;;;;6.32;3.05;;;20.50;79.70;;;;;;4998530;28;20508;-69
2023/07/13 02:04:47;;;;;;;5.90;2.72;;;20.60;79.20;;;;;;4998242;28;20018;-70
2023/07/13 02:07:14;;;;;;;4.38;2.42;;;20.60;79.30;;;;;;4998145;28;20018;-70
2023/07/13 02:09:41;;;;;;;4.82;2.38;;;20.60;79.30;;;;;;4998417;28;20102;-70
2023/07/13 02:12:08;;;;;;;4.50;2.72;;;20.60;79.20;;;;;;4998058;28;20441;-69
2023/07/13 02:14:34;;;;;;;5.28;2.55;;;20.70;79.10;;;;;;4998082;28;20030;-69
2023/07/13 02:17:00;;;;;;;5.15;2.80;;;20.80;79.20;;;;;;4997969;28;20023;-69
2023/07/13 02:19:26;;;;;;;6.10;2.60;;;20.80;78.80;;;;;;4998490;28;20030;-69
2023/07/13 02:21:52;;;;;;;3.05;2.10;;;20.80;78.70;;;;;;4997854;28;20330;-69
2023/07/13 02:24:20;;;;;;;7.95;3.00;;;20.80;78.60;;;;;;4998175;28;20104;-69
2023/07/13 02:26:47;;;;;;;4.55;2.50;;;20.80;78.70;;;;;;4998055;28;20053;-69
2023/07/13 02:29:13;;;;;;;4.22;2.08;;;20.90;78.70;;;;;;4997729;28;20052;-68
2023/07/13 02:31:39;;;;;;;5.45;2.55;;;21.00;78.80;;;;;;4997719;28;20037;-68
2023/07/13 02:34:05;;;;;;;4.32;2.35;;;21.20;78.70;;;;;;4997677;28;20400;-69
2023/07/13 02:36:32;;;;;;;4.95;2.80;;;21.20;78.50;;;;;;4997461;28;20054;-68
2023/07/13 02:39:02;;;;;;;6.60;2.70;;;21.30;78.30;;;;;;4997576;28;20463;-68
2023/07/13 02:41:29;;;;;;;4.68;2.38;;;21.30;78.10;;;;;;4997424;28;20033;-68
2023/07/13 02:44:02;;;;;;;5.57;2.78;;;21.30;78.20;;;;;;4997717;28;20029;-68
2023/07/13 02:46:29;;;;;;;;;;;21.40;78.10;;;;;;4997766;28;20475;-69
2023/07/13 02:48:55;;;;;;;3.75;2.33;;;21.30;78.30;;;;;;4997408;28;19933;-69
2023/07/13 02:51:21;;;;;;;5.43;2.22;;;21.30;78.00;;;;;;4997779;28;20030;-68
2023/07/13 02:53:46;;;;;;;3.80;2.22;;;21.20;77.90;;;;;;4997545;28;20097;-68
2023/07/13 02:56:12;;;;;;;4.53;2.45;;;21.20;77.90;;;;;;4997155;28;20034;-68
2023/07/13 02:58:38;;;;;;;4.70;2.55;;;21.20;77.90;;;;;;4997223;28;20030;-68
2023/07/13 03:01:09;;;;;;;6.32;2.72;;;21.20;77.80;;;;;;4997363;28;20041;-68
2023/07/13 03:03:36;;;;;;;4.10;2.55;;;21.20;77.80;;;;;;4997547;28;20309;-69
2023/07/13 03:06:05;;;;;;;4.40;2.78;;;21.10;77.80;;;;;;4997436;28;20101;-68
2023/07/13 03:08:31;;;;;;;6.30;2.72;;;21.10;77.90;;;;;;4996945;28;20030;-68
2023/07/13 03:11:08;;;;;;;4.88;2.63;;;21.10;77.80;;;;;;4997495;28;20065;-68
2023/07/13 03:13:34;;;;;;;4.70;2.60;;;21.00;78.00;;;;;;4996909;28;20034;-68
2023/07/13 03:16:00;;;;;;;5.82;2.90;;;21.00;78.00;;;;;;4996750;28;20038;-68
2023/07/13 03:18:27;;;;;;;3.17;2.30;;;20.90;78.10;;;;;;4996822;28;20096;-68
2023/07/13 03:20:53;;;;;;;5.30;2.60;;;21.00;78.10;;;;;;4996944;28;20026;-68
2023/07/13 03:23:21;;;;;;;6.00;2.88;;;21.00;78.10;;;;;;4996729;28;20059;-68
2023/07/13 03:25:48;;;;;;;6.90;3.08;;;20.90;78.20;;;;;;4996968;28;20022;-68
2023/07/13 03:28:15;;;;;;;6.43;3.53;;;21.00;78.30;;;;;;4996855;28;20033;-69
2023/07/13 03:30:41;;;;;;;5.95;2.80;;;21.00;78.30;;;;;;4996801;28;20019;-69
2023/07/13 03:33:08;;;;;;;4.75;3.05;;;21.00;78.30;;;;;;4997033;28;20040;-68
2023/07/13 03:35:35;;;;;;;4.18;2.70;;;21.00;78.30;;;;;;4996457;28;20049;-69
2023/07/13 03:38:01;;;;;;;4.97;2.90;;;21.10;78.30;;;;;;4996289;28;20117;-69
2023/07/13 03:40:28;;;;;;;4.47;2.50;;;21.10;78.30;;;;;;4996574;28;20110;-69
2023/07/13 03:42:54;;;;;;;4.35;2.53;;;21.10;78.30;;;;;;4996346;28;20065;-70
2023/07/13 03:45:20;;;;;;;6.15;3.00;;;21.10;78.30;;;;;;4996815;28;20030;-70
2023/07/13 03:47:46;;;;;;;6.80;3.20;;;21.10;78.20;;;;;;4996316;28;20102;-70
2023/07/13 03:50:12;;;;;;;7.22;2.97;;;21.10;78.30;;;;;;4995653;28;20109;-70
2023/07/13 03:52:38;;;;;;;5.13;2.90;;;21.10;78.10;;;;;;4996744;28;20054;-68
2023/07/13 03:55:05;;;;;;;6.80;2.58;;;21.20;78.20;;;;;;4996378;28;20030;-68
2023/07/13 03:57:31;;;;;;;5.47;3.45;;;21.20;78.20;;;;;;4996396;28;20034;-69
2023/07/13 03:59:58;;;;;;;4.65;3.20;;;21.20;78.20;;;;;;4996105;28;20129;-69
2023/07/13 04:02:23;;;;;;;6.65;3.45;;;21.20;78.30;;;;;;4995995;28;20035;-68
2023/07/13 04:04:49;;;;;;;5.38;2.95;;;21.20;78.30;;;;;;4996285;28;20034;-70
2023/07/13 04:07:15;;;;;;;7.43;3.40;;;21.20;78.20;;;;;;4996490;28;20037;-68
2023/07/13 04:09:41;;;;;;;6.00;3.45;;;21.20;78.20;;;;;;4996471;28;20022;-69
2023/07/13 04:12:08;;;;;;;8.77;3.60;;;21.20;78.20;;;;;;4996139;28;20448;-69
2023/07/13 04:14:33;;;;;;;7.63;3.60;;;21.20;78.40;;;;;;4995881;28;20467;-69
2023/07/13 04:16:59;;;;;;;6.75;3.00;;;21.20;78.20;;;;;;4995791;28;20042;-69
2023/07/13 04:19:25;;;;;;;6.30;3.80;;;21.20;78.20;;;;;;4995842;28;20038;-69
2023/07/13 04:21:51;;;;;;;5.57;3.85;;;21.30;78.40;;;;;;4995749;28;20022;-69
2023/07/13 04:24:17;;;;;;;5.80;3.35;;;21.30;78.40;;;;;;4994830;28;20023;-68
2023/07/13 04:26:43;;;;;;;8.38;3.70;;;21.40;78.30;;;;;;4995938;28;20026;-69
2023/07/13 04:29:09;;;;;;;5.50;3.80;;;21.40;78.20;;;;;;4995755;28;20053;-69
2023/07/13 04:31:35;;;;;;;7.57;4.10;;;21.50;78.20;;;;;;4996209;28;20424;-69
2023/07/13 04:34:02;;;;;;;7.00;3.70;;;21.40;78.20;;;;;;4994734;28;20030;-68
2023/07/13 04:36:28;;;;;;;7.10;3.75;;;21.40;78.00;;;;;;4995302;28;20046;-68
2023/07/13 04:38:54;;;;;;;6.30;3.70;;;21.40;78.00;;;;;;4995875;28;20026;-69
2023/07/13 04:41:21;;;;;;;9.50;4.57;;;21.40;78.00;;;;;;4995526;28;20460;-70
2023/07/13 04:43:48;;;;;;;6.18;3.80;;;21.50;78.20;;;;;;4995574;28;20038;-69
2023/07/13 04:46:20;;;;;;;8.90;4.53;;;21.50;78.10;;;;;;4995517;28;20033;-69
2023/07/13 04:48:46;;;;;;;7.05;3.50;;;21.50;78.10;;;;;;4995927;28;20030;-69
2023/07/13 04:51:13;;;;;;;9.73;4.75;;;21.50;78.00;;;;;;4995587;28;20077;-70
2023/07/13 04:53:39;;;;;;;7.03;3.70;;;21.50;78.20;;;;;;4995564;28;20084;-69
2023/07/13 04:56:05;;;;;;;8.15;3.38;;;21.50;78.30;;;;;;4995687;28;20110;-68
2023/07/13 04:58:31;;;;;;;6.65;3.90;;;21.50;78.00;;;;;;4995519;28;20466;-68
2023/07/13 05:01:03;;;;;;;6.90;3.25;;;21.60;77.90;;;;;;4997819;28;20026;-69
2023/07/13 05:03:29;;;;;;;5.15;3.60;;;21.70;77.70;;;;;;4998509;28;20027;-69
2023/07/13 05:05:59;;;;;;;6.03;3.30;;;21.80;77.70;;;;;;4999240;28;20094;-69
2023/07/13 05:08:26;;;;;;;5.43;3.30;;;21.80;77.50;;;;;;4999488;28;20436;-68
2023/07/13 05:10:52;;;;;;;7.60;3.45;;;21.90;77.60;;;;;;4999175;28;20033;-71
2023/07/13 05:13:19;;;;;;;7.78;3.45;;;21.90;77.50;;;;;;4999116;28;20376;-69
2023/07/13 05:15:45;;;;;;;5.13;2.92;;;21.90;77.40;;;;;;4998984;28;20022;-69
2023/07/13 05:18:11;;;;;;;5.60;3.45;;;22.00;77.30;;;;;;4999100;28;20436;-68
2023/07/13 05:20:37;;;;;;;6.30;3.58;;;22.00;77.20;;;;;;4999486;28;20026;-69
2023/07/13 05:23:03;;;;;;;5.07;3.13;;;22.10;77.00;;;;;;4999221;28;20352;-69
2023/07/13 05:25:29;;;;;;;6.10;3.58;;;22.10;76.90;;;;;;4998894;28;20026;-68
2023/07/13 05:27:55;;;;;;;6.50;3.60;;;22.20;76.80;;;;;;4998922;28;20030;-69
2023/07/13 05:30:21;;;;;;;7.05;3.28;;;22.30;76.80;;;;;;4999375;28;20029;-69
2023/07/13 05:32:47;;;;;;;11.27;3.97;;;22.40;76.70;;;;;;4998796;28;20329;-69
2023/07/13 05:35:13;;;;;;;9.25;3.78;;;22.50;76.60;;;;;;4999217;28;20072;-69
2023/07/13 05:37:39;;;;;;;5.53;2.83;;;22.60;76.70;;;;;;4998479;28;20058;-69
2023/07/13 05:40:06;;;;;;;4.07;2.90;;;22.70;76.30;;;;;;4997690;28;20037;-68
2023/07/13 05:42:32;;;;;;;5.25;3.15;;;22.90;76.10;;;;;;4998561;28;20036;-69
2023/07/13 05:44:58;;;;;;;4.32;2.47;;;23.30;75.60;;;;;;4998598;28;20019;-68
2023/07/13 05:47:24;;;;;;;5.55;2.63;;;23.60;75.20;;;;;;4998750;28;20368;-69
2023/07/13 05:49:50;;;;;;;5.07;2.67;;;23.90;74.70;;;;;;4998470;28;20449;-69
2023/07/13 05:52:16;;;;;;;7.65;2.03;;;24.20;73.90;;;;;;4998486;28;20034;-69
2023/07/13 05:54:42;;;;;;;3.17;1.92;;;24.40;73.20;;;;;;4998627;28;20077;-70
2023/07/13 05:57:08;;;;;;;5.75;2.30;;;24.60;72.70;;;;;;4998317;28;20037;-69
2023/07/13 05:59:33;;;;;;;2.55;1.52;;;24.70;72.40;;;;;;4998590;28;20046;-68
2023/07/13 06:01:59;;;;;;;3.90;1.58;;;24.90;71.90;;;;;;4998412;28;20113;-68
2023/07/13 06:04:25;;;;;;;4.45;1.48;;;24.90;71.40;;;;;;4998125;28;20022;-69
2023/07/13 06:06:51;;;;;;;3.38;2.08;;;24.90;71.30;;;;;;4997117;28;20057;-69
2023/07/13 06:09:18;;;;;;;2.45;1.80;;;24.90;71.20;;;;;;4997488;28;20022;-67
2023/07/13 06:11:44;;;;;;;2.20;1.58;;;24.80;71.00;;;;;;4997854;28;20027;-69
2023/07/13 06:14:10;;;;;;;2.20;1.58;;;24.70;70.90;;;;;;4996941;28;20360;-70
2023/07/13 06:16:37;;;;;;;5.50;1.77;;;24.60;71.20;;;;;;4998008;28;20160;-69
2023/07/13 06:19:02;;;;;;;4.28;1.70;;;24.50;71.20;;;;;;4997297;28;20027;-69
2023/07/13 06:21:28;;;;;;;2.15;1.45;;;24.50;71.20;;;;;;4995849;28;20034;-68
2023/07/13 06:23:54;;;;;;;2.70;1.80;;;24.50;71.30;;;;;;4997893;28;20045;-69
2023/07/13 06:26:21;;;;;;;3.50;1.75;;;24.50;71.50;;;;;;4997993;28;20037;-68
2023/07/13 06:28:47;;;;;;;2.10;1.45;;;24.50;71.30;;;;;;4998288;28;20030;-69
2023/07/13 06:31:14;;;;;;;4.88;2.22;;;24.50;71.20;;;;;;4997407;28;20130;-70
2023/07/13 06:33:40;;;;;;;4.50;2.00;;;24.50;71.20;;;;;;4997680;28;20030;-69
2023/07/13 06:36:08;;;;;;;2.90;1.85;;;24.50;71.20;;;;;;4997120;28;20364;-70
2023/07/13 06:38:34;;;;;;;3.88;1.92;;;24.60;71.30;;;;;;4997653;28;20038;-70
2023/07/13 06:41:01;;;;;;;4.78;1.95;;;24.60;71.40;;;;;;4996625;28;20068;-69
2023/07/13 06:43:28;;;;;;;4.38;1.88;;;24.60;71.40;;;;;;4996627;28;20046;-70
2023/07/13 06:45:55;;;;;;;7.07;1.95;;;24.60;71.20;;;;;;4997336;28;20042;-69
2023/07/13 06:48:21;;;;;;;3.92;2.15;;;24.60;71.20;;;;;;4997751;28;20049;-69
2023/07/13 06:50:49;;;;;;;3.00;1.90;;;24.60;71.10;;;;;;4997444;28;20065;-69
2023/07/13 06:53:15;;;;;;;2.47;1.63;;;24.60;71.00;;;;;;4997338;28;20022;-70
2023/07/13 06:55:44;;;;;;;3.53;1.60;;;24.70;71.10;;;;;;4997227;28;20072;-69
2023/07/13 06:58:12;;;;;;;4.80;1.98;;;24.70;71.10;;;;;;4997540;28;20026;-69
2023/07/13 07:00:39;;;;;;;4.70;2.45;;;24.70;71.20;;;;;;4997148;28;20030;-69
2023/07/13 07:03:06;;;;;;;5.63;2.55;;;24.70;71.30;;;;;;4997428;28;20463;-69
2023/07/13 07:05:31;;;;;;;4.15;2.70;;;24.80;71.30;;;;;;4997517;28;20451;-69
2023/07/13 07:07:58;;;;;;;6.15;3.08;;;24.80;71.20;;;;;;4997599;28;20026;-69
2023/07/13 07:10:24;;;;;;;5.97;2.70;;;24.90;71.20;;;;;;4997032;28;20161;-68
2023/07/13 07:12:50;;;;;;;3.78;2.92;;;24.90;71.20;;;;;;4997488;28;20105;-69
2023/07/13 07:15:17;;;;;;;4.15;2.55;;;24.90;71.10;;;;;;4996818;28;20041;-70
2023/07/13 07:17:43;;;;;;;5.80;2.53;;;24.90;71.10;;;;;;4997167;28;20049;-69
2023/07/13 07:20:10;;;;;;;7.80;2.63;;;24.90;71.00;;;;;;4997092;28;20042;-69
2023/07/13 07:22:36;;;;;;;5.55;2.72;;;25.00;70.90;;;;;;4996641;28;20026;-69
2023/07/13 07:25:02;;;;;;;4.57;2.40;;;25.10;70.90;;;;;;4996112;28;20023;-69
2023/07/13 07:27:28;;;;;;;5.18;2.70;;;25.20;70.90;;;;;;4996637;28;20033;-70
2023/07/13 07:29:54;;;;;;;7.47;3.28;;;25.30;70.90;;;;;;4996586;28;20105;-70
2023/07/13 07:32:20;;;;;;;9.07;3.40;;;25.30;70.80;;;;;;4997124;28;20118;-69
2023/07/13 07:34:46;;;;;;;5.35;3.00;;;25.40;70.70;;;;;;4996868;28;20026;-67
2023/07/13 07:37:13;;;;;;;6.32;3.17;;;25.40;70.60;;;;;;4996171;28;20399;-67
2023/07/13 07:39:39;;;;;;;5.50;3.20;;;25.40;70.60;;;;;;4995831;28;20430;-69
2023/07/13 07:42:06;;;;;;;5.38;3.42;;;25.50;70.40;;;;;;4996655;28;20077;-68
2023/07/13 07:44:32;;;;;;;6.55;3.42;;;25.50;70.30;;;;;;4996655;28;20026;-68
2023/07/13 07:46:59;;;;;;;5.22;3.15;;;25.60;70.40;;;;;;4995436;28;20467;-69
2023/07/13 07:49:25;;;;;;;4.60;3.20;;;25.60;70.30;;;;;;4996833;28;20037;-68
2023/07/13 07:51:51;;;;;;;7.25;3.20;;;25.70;70.20;;;;;;4996364;28;20022;-69
2023/07/13 07:54:17;;;;;;;5.45;3.00;;;25.70;70.10;;;;;;4996291;28;20030;-69
2023/07/13 07:56:43;;;;;;;5.65;3.15;;;25.70;70.10;;;;;;4996416;28;20049;-69
2023/07/13 07:59:09;;;;;;;5.20;2.92;;;25.70;70.00;;;;;;4996199;28;20038;-68
2023/07/13 08:01:36;;;;;;;4.93;3.30;;;25.70;70.00;;;;;;4995456;28;20058;-68
2023/07/13 08:04:02;;;;;;;5.20;3.28;;;25.70;70.00;;;;;;4995928;28;20048;-69
2023/07/13 08:06:28;;;;;;;5.38;3.17;;;25.70;70.00;;;;;;4995987;28;20094;-69
2023/07/13 08:08:55;;;;;;;8.25;3.20;;;25.80;69.90;;;;;;4996003;28;20022;-69
2023/07/13 08:11:22;;;;;;;5.53;3.00;;;25.90;69.90;;;;;;4995083;28;20022;-68
2023/07/13 08:13:49;;;;;;;7.80;3.30;;;25.90;69.80;;;;;;4995935;28;20341;-69
2023/07/13 08:16:15;;;;;;;5.47;2.72;;;26.00;69.80;;;;;;4996064;28;20058;-70
2023/07/13 08:18:41;;;;;;;7.28;3.83;;;26.00;69.60;;;;;;4996154;28;20060;-69
2023/07/13 08:21:08;;;;;;;5.05;2.83;;;26.10;69.50;;;;;;4995893;28;20058;-69
2023/07/13 08:23:35;;;;;;;6.47;3.00;;;26.20;69.40;;;;;;4995412;28;20033;-69
2023/07/13 08:26:02;;;;;;;7.57;3.72;;;26.20;69.30;;;;;;4993762;28;20022;-69
2023/07/13 08:28:29;;;;;;;7.75;4.30;;;26.20;69.30;;;;;;4994419;28;20432;-70
2023/07/13 08:30:54;;;;;;;6.22;3.83;;;26.20;69.20;;;;;;4994627;28;20435;-69
2023/07/13 08:33:25;;;;;;;6.13;4.05;;;26.20;69.10;;;;;;4993661;28;20084;-69
2023/07/13 08:35:51;;;;;;;5.75;3.55;;;26.20;69.20;;;;;;4997824;28;20023;-69
2023/07/13 08:38:18;;;;;;;5.38;3.10;;;26.10;69.20;;;;;;5001305;28;20096;-69
2023/07/13 08:40:49;;;;;;;7.10;3.83;;;26.10;69.30;;;;;;5001184;28;20026;-69
2023/07/13 08:43:21;;;;;;;7.13;4.00;;;26.10;69.40;;;;;;5002276;28;20076;-68
2023/07/13 08:45:59;;;;;;;6.93;4.28;;;26.10;69.40;;;;;;5002347;28;20101;-69
2023/07/13 08:48:34;;;;;;;10.20;4.70;;;26.10;69.40;;;;;;5001544;28;20329;-68
2023/07/13 08:51:25;;;;;;;8.00;4.20;;;26.10;69.40;;;;;;5001152;28;20456;-69
2023/07/13 08:53:58;;;;;;;5.38;3.70;;;26.00;69.50;;;;;;4996298;28;20061;-69
2023/07/13 08:56:26;;;;;;;9.25;5.10;;;26.10;69.60;;;;;;4993690;28;20031;-69
2023/07/13 08:58:57;;;;;;;7.97;4.10;;;26.20;69.60;;;;;;4981591;28;20038;-69
2023/07/13 09:02:00;;;;;;;7.45;4.15;;;26.10;69.60;;;;;;4981485;28;20023;-70
2023/07/13 09:04:34;;;;;;;8.82;4.85;;;26.10;69.50;;;;;;4982788;28;20046;-69
2023/07/13 09:07:28;;;;;;;9.38;4.68;;;26.10;69.30;;;;;;4982727;28;20031;-69
2023/07/13 09:10:09;;;;;;;9.32;4.35;;;26.10;69.40;;;;;;4982763;28;20472;-69
2023/07/13 09:12:38;;;;;;;9.20;4.50;;;26.10;69.40;;;;;;4981980;28;20319;-69
2023/07/13 09:15:14;;;;;;;7.30;3.15;;;26.10;69.40;;;;;;4982427;28;20031;-69
2023/07/13 09:17:52;;;;;;;6.22;3.67;;;26.10;69.40;;;;;;4982142;28;20030;-69
2023/07/13 09:20:27;;;;;;;8.43;4.05;;;26.10;69.40;;;;;;4982993;28;20444;-70
2023/07/13 09:22:53;;;;;;;7.70;4.32;;;26.10;69.40;;;;;;4982796;28;20034;-69
2023/07/13 09:25:33;;;;;;;9.45;4.45;;;26.10;69.40;;;;;;4982516;28;20102;-69
2023/07/13 09:28:14;;;;;;;8.75;5.03;;;26.10;69.50;;;;;;4981373;28;20038;-69
2023/07/13 09:31:01;;;;;;;10.40;5.45;;;26.10;69.70;;;;;;4982756;28;20066;-69
2023/07/13 09:33:29;;;;;;;8.27;4.18;;;26.00;69.80;;;;;;4981269;28;20027;-69
2023/07/13 09:35:58;;;;;;;7.95;4.68;;;26.00;69.90;;;;;;4982112;28;20031;-69
2023/07/13 09:38:28;;;;;;;8.07;4.80;;;25.90;70.10;;;;;;4981806;28;20098;-69
2023/07/13 09:41:08;;;;;;;7.40;4.88;;;25.90;70.20;;;;;;4981173;28;20456;-69
2023/07/13 09:43:35;;;;;;;8.60;5.13;;;25.80;70.30;;;;;;4982502;28;20081;-69
2023/07/13 09:46:01;;;;;;;10.95;6.25;;;25.80;70.20;;;;;;4982500;28;20049;-69
2023/07/13 09:48:36;;;;;;;9.55;5.45;;;25.70;70.30;;;;;;4978643;28;20031;-69
2023/07/13 09:51:15;;;;;;;10.00;5.30;;;25.60;70.50;;;;;;4979630;28;20026;-69
2023/07/13 09:53:43;;;;;;;8.57;5.43;;;25.60;70.70;;;;;;4978279;28;20039;-68
2023/07/13 09:56:26;;;;;;;11.90;5.82;;;25.50;70.80;;;;;;4979219;28;20019;-69
2023/07/13 09:58:53;;;;;;;8.80;5.50;;;25.50;71.00;;;;;;4977991;28;20118;-68
2023/07/13 10:01:35;;;;;;;9.48;5.32;;;25.50;71.20;;;;;;4978761;28;20030;-69
2023/07/13 10:04:01;;;;;;;10.57;5.70;;;25.40;71.50;;;;;;4979331;28;20026;-69
2023/07/13 10:06:27;;;;;;;9.48;4.90;;;25.40;71.60;;;;;;4978682;28;20429;-69
2023/07/13 10:08:55;;;;;;;8.15;5.40;;;25.40;71.70;;;;;;4978726;28;20454;-69
2023/07/13 10:11:27;;;;;;;8.75;4.70;;;25.40;71.90;;;;;;4978679;28;20033;-69
2023/07/13 10:14:09;;;;;;;8.88;4.50;;;25.40;72.00;;;;;;4978960;28;20069;-68
2023/07/13 10:16:35;;;;;;;5.80;4.45;;;25.40;72.20;;;;;;4978764;28;20041;-69
2023/07/13 10:19:21;;;;;;;7.60;4.45;;;25.40;72.10;;;;;;4993808;28;20123;-69
2023/07/13 10:21:56;;;;;;;10.23;5.60;;;25.60;72.20;;;;;;4978719;28;20038;-68
2023/07/13 10:24:31;;;;;;;9.93;5.72;;;25.70;72.10;;;;;;4977906;28;20034;-69
2023/07/13 10:27:33;;;;;;;8.43;5.00;;;25.90;71.90;;;;;;4978361;28;20054;-69
2023/07/13 10:30:20;;;;;;;11.75;5.93;;;26.20;72.10;;;;;;4978378;28;20033;-69
2023/07/13 10:32:47;;;;;;;10.73;5.75;;;26.40;71.30;;;;;;4978664;28;20035;-69
2023/07/13 10:35:19;;;;;;;11.25;5.18;;;26.80;70.70;;;;;;4978242;28;20041;-67
2023/07/13 10:37:50;;;;;;;8.30;4.28;;;27.10;70.00;;;;;;4978282;28;20058;-68
2023/07/13 10:40:29;;;;;;;5.50;3.33;;;27.40;68.30;;;;;;4977326;28;20030;-67
2023/07/13 10:42:58;;;;;;;5.22;2.72;;;27.60;67.90;;;;;;4977087;28;20035;-68
2023/07/13 10:45:35;;;;;;;6.15;2.50;;;27.90;67.10;;;;;;4978273;28;20467;-67
2023/07/13 10:48:02;;;;;;;3.60;2.20;;;28.10;65.60;;;;;;4978564;28;20036;-69
2023/07/13 10:50:32;;;;;;;4.00;2.40;;;28.30;65.00;;;;;;4978528;28;20054;-69
2023/07/13 10:53:37;;;;;;;4.20;2.30;;;28.50;64.70;;;;;;4978236;28;20051;-69
2023/07/13 10:56:31;;;;;;;3.00;2.15;;;28.60;63.90;;;;;;4978597;28;20035;-68
2023/07/13 10:59:29;;;;;;;3.78;2.40;;;28.80;63.70;;;;;;4977628;28;20154;-68
2023/07/13 11:02:12;;;;;;;5.00;2.20;;;28.90;62.40;;;;;;4992826;28;20113;-69
2023/07/13 11:04:57;;;;;;;4.22;2.30;;;29.00;61.90;;;;;;4961953;28;20053;-68
2023/07/13 11:07:28;;;;;;;3.78;2.28;;;29.20;61.90;;;;;;4978332;28;20030;-66
2023/07/13 11:09:57;;;;;;;3.85;2.35;;;29.40;61.50;;;;;;4977811;28;20030;-68
2023/07/13 11:12:23;;;;;;;2.97;2.40;;;29.50;61.10;;;;;;4976568;28;20030;-69
2023/07/13 11:14:54;;;;;;;3.67;2.40;;;29.60;60.40;;;;;;4977462;28;20035;-69
2023/07/13 11:17:35;;;;;;;3.92;2.40;;;29.60;59.20;;;;;;4977361;28;20035;-69
2023/07/13 11:20:31;;;;;;;4.78;2.25;;;29.60;58.30;;;;;;4977330;28;20082;-69
2023/07/13 11:23:20;;;;;;;5.03;2.35;;;29.60;58.50;;;;;;4977594;28;20105;-69
2023/07/13 11:25:48;;;;;;;4.47;2.35;;;29.70;58.00;;;;;;4977492;28;20066;-70
2023/07/13 11:28:27;;;;;;;4.15;2.50;;;29.80;57.90;;;;;;4977258;28;20038;-68
2023/07/13 11:30:55;;;;;;;3.40;2.00;;;29.80;57.40;;;;;;4977233;28;20022;-68
2023/07/13 11:33:39;;;;;;;5.28;2.63;;;29.80;57.10;;;;;;4977436;28;20065;-69
2023/07/13 11:36:12;;;;;;;2.95;1.90;;;29.80;56.80;;;;;;4977086;28;20023;-68
2023/07/13 11:38:45;;;;;;;2.55;2.30;;;29.80;56.50;;;;;;4976118;28;20090;-69
2023/07/13 11:41:21;;;;;;;3.37;2.20;;;29.90;56.90;;;;;;4977541;28;20061;-66
2023/07/13 11:43:53;;;;;;;3.83;2.42;;;29.90;56.50;;;;;;4977538;28;20381;-68
2023/07/13 11:46:25;;;;;;;3.47;2.25;;;30.00;56.00;;;;;;4976318;28;20023;-67
2023/07/13 11:48:52;;;;;;;4.68;2.20;;;30.00;56.00;;;;;;4976618;28;20033;-67
2023/07/13 11:51:30;;;;;;;3.85;2.30;;;30.10;55.90;;;;;;4977094;28;20039;-68
2023/07/13 11:54:00;;;;;;;4.80;2.50;;;30.20;55.70;;;;;;4977132;28;20055;-68
2023/07/13 11:56:26;;;;;;;4.65;2.50;;;30.20;55.60;;;;;;4976666;28;20019;-69
2023/07/13 11:58:55;;;;;;;3.88;2.28;;;30.40;55.70;;;;;;4976675;28;20389;-68
2023/07/13 12:01:32;;;;;;;3.47;2.08;;;30.50;55.70;;;;;;4976636;28;20031;-67
2023/07/13 12:04:00;;;;;;;4.45;2.63;;;30.60;55.60;;;;;;4976109;28;20102;-68
2023/07/13 12:06:31;;;;;;;6.35;2.50;;;30.60;55.70;;;;;;4977052;28;20069;-70
2023/07/13 12:09:18;;;;;;;3.47;2.63;;;30.60;55.50;;;;;;4976891;28;20027;-67
2023/07/13 12:11:45;;;;;;;4.00;2.80;;;30.60;55.70;;;;;;4976360;28;20346;-67
2023/07/13 12:14:15;;;;;;;4.03;2.28;;;30.60;55.30;;;;;;4976502;28;20027;-68
2023/07/13 12:16:41;;;;;;;3.58;2.30;;;30.60;55.40;;;;;;4975870;28;20042;-67
2023/07/13 12:19:32;;;;;;;7.22;2.92;;;30.70;55.40;;;;;;4976408;28;20495;-67
2023/07/13 12:21:59;;;;;;;4.40;2.55;;;30.80;55.20;;;;;;4976424;28;20073;-70
2023/07/13 12:24:26;;;;;;;3.53;2.65;;;30.90;55.10;;;;;;4976673;28;20452;-70
2023/07/13 12:26:55;;;;;;;5.88;2.70;;;31.00;54.90;;;;;;4975443;28;20034;-65
2023/07/13 12:29:21;;;;;;;5.38;2.75;;;31.10;54.60;;;;;;4976590;28;20033;-67
2023/07/13 12:31:49;;;;;;;5.03;2.70;;;31.20;54.50;;;;;;4976575;28;20035;-68
2023/07/13 12:34:18;;;;;;;4.50;2.55;;;31.20;54.50;;;;;;4976311;28;20449;-68
2023/07/13 12:37:11;;;;;;;6.15;2.90;;;31.20;54.50;;;;;;4975737;28;20059;-69
2023/07/13 12:39:48;;;;;;;6.28;2.90;;;31.20;54.40;;;;;;4976603;28;20030;-68
2023/07/13 12:42:17;;;;;;;4.93;2.92;;;31.20;53.70;;;;;;4976734;28;20206;-69
2023/07/13 12:44:43;;;;;;;12.70;4.00;;;31.20;53.80;;;;;;4976139;28;20022;-68
2023/07/13 12:47:21;;;;;;;5.18;3.10;;;31.10;53.20;;;;;;4976128;28;20031;-68
2023/07/13 12:49:57;;;;;;;6.50;3.13;;;31.00;53.10;;;;;;4976481;28;20042;-69
2023/07/13 12:52:30;;;;;;;7.93;3.55;;;31.00;53.30;;;;;;4976683;28;20034;-69
2023/07/13 12:55:16;;;;;;;4.82;3.10;;;31.00;52.90;;;;;;4976139;28;20053;-69
2023/07/13 12:57:53;;;;;;;5.22;2.80;;;31.00;53.40;;;;;;4976100;28;20351;-69